createdAt,value
2019-02-22T00:03:26.045Z,52.70
2019-02-22T00:05:58.455Z,54.73
2019-02-22T00:09:12.524Z,52.43
2019-02-22T00:14:16.619Z,50.90
2019-02-22T00:17:35.128Z,52.87
2019-02-22T00:20:09.114Z,53.53
2019-02-22T00:25:16.696Z,56.37
2019-02-22T00:27:50.104Z,58.77
2019-02-22T00:30:21.513Z,50.97
2019-02-22T00:33:04.498Z,48.53
2019-02-22T00:35:39.833Z,53.97
2019-02-22T00:38:12.910Z,57.27
2019-02-22T00:40:53.763Z,49.50
2019-02-22T00:43:24.983Z,56.23
2019-02-22T00:46:28.292Z,53.17
2019-02-22T00:49:00.690Z,53.10
2019-02-22T00:51:37.266Z,57.23
2019-02-22T00:54:11.426Z,56.40
2019-02-22T00:56:45.621Z,60.53
2019-02-22T00:59:17.077Z,60.90
2019-02-22T01:01:55.546Z,60.70
2019-02-22T01:04:30.313Z,62.43
2019-02-22T01:07:36.956Z,58.83
2019-02-22T01:10:11.432Z,61.53
2019-02-22T01:13:18.085Z,62.43
2019-02-22T01:15:50.596Z,58.90
2019-02-22T01:18:23.872Z,59.87
2019-02-22T01:21:31.036Z,60.47
2019-02-22T01:24:03.541Z,65.03
2019-02-22T01:26:37.059Z,64.93
2019-02-22T01:29:13.549Z,68.07
2019-02-22T01:31:47.107Z,63.20
2019-02-22T01:34:17.624Z,65.93
2019-02-22T01:36:50.782Z,61.33
2019-02-22T01:39:22.399Z,70.50
2019-02-22T01:42:28.017Z,61.33
2019-02-22T01:45:03.846Z,68.80
2019-02-22T01:47:34.708Z,63.80
2019-02-22T01:50:30.191Z,62.97
2019-02-22T01:53:02.706Z,65.90
2019-02-22T01:55:36.083Z,60.97
2019-02-22T01:58:08.373Z,64.03
2019-02-22T02:00:42.143Z,67.10
2019-02-22T02:03:16.644Z,64.23
2019-02-22T02:05:49.193Z,67.70
2019-02-22T02:08:21.871Z,65.17
2019-02-22T02:11:31.712Z,61.20
2019-02-22T02:14:04.739Z,71.10
2019-02-22T02:16:40.603Z,66.53
2019-02-22T02:19:12.872Z,64.93
2019-02-22T02:21:44.420Z,70.23
2019-02-22T02:24:16.373Z,68.57
2019-02-22T02:26:49.959Z,66.20
2019-02-22T02:29:22.851Z,71.33
2019-02-22T02:32:00.763Z,70.73
2019-02-22T02:34:32.226Z,64.83
2019-02-22T02:37:28.223Z,61.33
2019-02-22T02:40:00.445Z,64.17
2019-02-22T02:42:33.104Z,62.53
2019-02-22T02:45:35.585Z,62.83
2019-02-22T02:48:08.475Z,61.77
2019-02-22T02:51:06.314Z,64.33
2019-02-22T02:53:39.597Z,60.33
2019-02-22T02:56:11.094Z,66.17
2019-02-22T02:58:44.236Z,60.43
2019-02-22T03:01:14.016Z,59.33
2019-02-22T03:03:46.547Z,66.27
2019-02-22T03:06:30.678Z,69.83
2019-02-22T03:09:00.734Z,66.63
2019-02-22T03:12:09.369Z,69.00
2019-02-22T03:14:48.138Z,69.47
2019-02-22T03:17:18.828Z,63.53
2019-02-22T03:20:17.234Z,65.40
2019-02-22T03:22:50.472Z,68.13
2019-02-22T03:28:13.975Z,76.67
2019-02-22T03:30:47.519Z,70.87
2019-02-22T03:33:23.136Z,69.63
2019-02-22T03:35:56.337Z,71.17
2019-02-22T03:39:01.060Z,72.07
2019-02-22T03:41:35.311Z,69.33
2019-02-22T03:44:09.177Z,75.63
2019-02-22T03:47:31.912Z,76.90
2019-02-22T03:50:07.658Z,82.60
2019-02-22T03:55:32.640Z,74.00
2019-02-22T03:58:05.153Z,72.90
2019-02-22T04:00:37.966Z,77.10
2019-02-22T04:03:08.888Z,78.10
2019-02-22T04:06:31.234Z,78.07
2019-02-22T04:09:04.370Z,75.80
2019-02-22T04:11:44.913Z,80.37
2019-02-22T04:14:08.754Z,71.87
2019-02-22T04:16:38.216Z,77.77
2019-02-22T04:19:55.719Z,82.33
2019-02-22T04:22:29.082Z,75.97
2019-02-22T04:25:02.317Z,87.87
2019-02-22T04:27:40.876Z,88.13
2019-02-22T04:30:14.938Z,76.87
2019-02-22T04:32:49.112Z,82.57
2019-02-22T04:35:22.882Z,94.53
2019-02-22T04:37:56.364Z,96.07
2019-02-22T04:41:04.529Z,96.53
2019-02-22T04:43:38.782Z,93.40
2019-02-22T04:46:14.054Z,97.87
2019-02-22T04:49:32.212Z,102.23
2019-02-22T04:52:05.768Z,106.20
2019-02-22T04:54:39.497Z,104.40
2019-02-22T04:57:35.388Z,108.93
2019-02-22T05:00:06.385Z,92.77
2019-02-22T05:02:42.807Z,102.33
2019-02-22T05:05:14.756Z,106.20
2019-02-22T05:07:46.804Z,100.50
2019-02-22T05:10:19.573Z,106.37
2019-02-22T05:13:44.525Z,94.30
2019-02-22T05:16:14.971Z,95.90
2019-02-22T05:19:24.259Z,108.10
2019-02-22T05:21:56.323Z,95.23
2019-02-22T05:25:03.394Z,93.53
2019-02-22T05:27:37.580Z,104.60
2019-02-22T05:30:10.783Z,106.87
2019-02-22T05:33:15.488Z,102.03
2019-02-22T05:35:46.091Z,98.10
2019-02-22T05:38:53.645Z,100.63
2019-02-22T05:41:25.141Z,115.40
2019-02-22T05:43:57.804Z,107.83
2019-02-22T05:46:30.188Z,112.90
2019-02-22T05:49:01.378Z,111.87
2019-02-22T05:51:34.980Z,114.87
2019-02-22T05:54:12.634Z,117.77
2019-02-22T05:56:42.576Z,121.87
2019-02-22T05:59:12.707Z,101.67
2019-02-22T06:01:52.926Z,103.33
2019-02-22T06:04:25.315Z,85.53
2019-02-22T06:07:17.139Z,85.37
2019-02-22T06:09:47.357Z,84.30
2019-02-22T06:12:18.557Z,91.33
2019-02-22T06:15:35.218Z,74.43
2019-02-22T06:18:06.586Z,79.40
2019-02-22T06:21:16.857Z,70.40
2019-02-22T11:12:16.928Z,39.70
2019-02-22T11:15:05.246Z,35.73
2019-02-22T11:31:15.078Z,35.78
2019-02-22T11:34:19.848Z,33.00
2019-02-22T11:36:52.219Z,30.63
2019-02-22T11:39:21.731Z,36.17
2019-02-22T11:42:32.906Z,28.63
2019-02-22T11:45:02.029Z,31.63
2019-02-22T11:48:29.936Z,33.83
2019-02-22T11:51:02.406Z,30.57
2019-02-22T11:53:32.214Z,33.92
2019-02-22T11:59:24.681Z,32.87
2019-02-22T12:01:56.977Z,33.53
2019-02-22T12:05:00.382Z,32.53
2019-02-22T12:07:33.873Z,36.90
2019-02-22T12:10:30.140Z,33.93
2019-02-22T12:13:04.293Z,30.63
2019-02-22T12:16:25.504Z,31.43
2019-02-22T12:18:58.383Z,30.57
2019-02-22T12:21:31.304Z,28.60
2019-02-22T12:23:59.713Z,30.60
2019-02-22T12:26:35.577Z,28.67
2019-02-22T12:29:05.440Z,29.07
2019-02-22T12:31:34.584Z,25.67
2019-02-22T12:34:54.433Z,24.87
2019-02-22T12:37:26.301Z,24.67
2019-02-22T12:40:05.650Z,25.97
2019-02-22T12:43:11.495Z,28.03
2019-02-22T12:45:47.873Z,27.33
2019-02-22T12:48:19.909Z,24.67
2019-02-22T12:50:59.352Z,22.23
2019-02-22T12:53:39.492Z,23.53
2019-02-22T12:56:21.433Z,23.17
2019-02-22T13:05:54.247Z,23.13
2019-02-22T13:08:23.764Z,22.17
2019-02-22T13:11:09.792Z,19.97
2019-02-22T13:13:38.944Z,21.50
2019-02-22T13:16:41.192Z,20.97
2019-02-22T13:19:10.360Z,19.67
2019-02-22T13:22:36.212Z,21.23
2019-02-22T13:25:10.954Z,13.83
2019-02-22T13:28:06.721Z,16.97
2019-02-22T13:30:36.185Z,14.77
2019-02-22T13:33:07.777Z,18.47
2019-02-22T13:36:14.271Z,15.27
2019-02-22T13:38:43.810Z,17.60
2019-02-22T13:42:03.116Z,17.53
2019-02-22T13:44:39.620Z,15.20
2019-02-22T13:47:50.329Z,14.33
2019-02-22T13:50:23.101Z,14.93
2019-02-22T13:53:37.714Z,14.10
2019-02-22T13:56:09.075Z,18.03
2019-02-22T13:59:17.067Z,14.10
2019-02-22T14:01:47.938Z,18.53
2019-02-22T14:04:44.124Z,12.90
2019-02-22T14:10:58.743Z,15.80
2019-02-22T14:13:32.000Z,19.17
2019-02-22T14:16:52.662Z,19.00
2019-02-22T14:19:30.214Z,18.30
2019-02-22T14:22:12.598Z,15.30
2019-02-22T14:24:47.499Z,20.07
2019-02-22T14:28:12.018Z,19.17
2019-02-22T14:30:39.704Z,14.67
2019-02-22T14:33:52.330Z,18.23
2019-02-22T14:36:25.394Z,14.57
2019-02-22T14:39:31.824Z,15.73
2019-02-22T14:42:03.092Z,17.10
2019-02-22T14:44:58.217Z,15.67
2019-02-22T14:47:37.235Z,13.30
2019-02-22T14:50:56.092Z,15.47
2019-02-22T14:53:30.246Z,18.37
2019-02-22T14:56:44.807Z,16.30
2019-02-22T14:59:21.722Z,16.20
2019-02-22T15:02:16.790Z,18.13
2019-02-22T15:04:46.406Z,15.97
2019-02-22T15:08:06.753Z,22.13
2019-02-22T15:10:40.447Z,19.90
2019-02-22T15:13:32.120Z,19.73
2019-02-22T15:16:07.451Z,20.90
2019-02-22T15:19:17.289Z,18.80
2019-02-22T15:21:49.604Z,20.27
2019-02-22T15:24:37.701Z,17.20
2019-02-22T15:27:36.178Z,24.77
2019-02-22T15:30:23.410Z,19.53
2019-02-22T15:32:52.700Z,17.27
2019-02-22T15:35:21.723Z,18.37
2019-02-22T15:37:50.768Z,20.50
2019-02-22T15:43:07.922Z,17.57
2019-02-22T15:45:41.503Z,22.03
2019-02-22T15:48:37.280Z,22.90
2019-02-22T15:51:08.881Z,20.50
2019-02-22T15:54:19.681Z,21.33
2019-02-22T15:56:48.945Z,19.20
2019-02-22T16:00:01.703Z,18.47
2019-02-22T16:02:31.654Z,19.70
2019-02-22T16:05:26.299Z,20.83
2019-02-22T16:07:59.078Z,18.97
2019-02-22T16:11:01.251Z,18.73
2019-02-22T16:13:32.073Z,18.57
2019-02-22T16:16:43.248Z,22.03
2019-02-22T16:19:29.086Z,20.33
2019-02-22T16:22:51.407Z,21.97
2019-02-22T16:25:20.983Z,22.63
2019-02-22T16:28:15.817Z,22.30
2019-02-22T16:30:45.410Z,18.90
2019-02-22T16:33:50.812Z,21.07
2019-02-22T16:36:21.984Z,19.73
2019-02-22T16:39:28.378Z,19.90
2019-02-22T16:42:00.548Z,19.73
2019-02-22T16:45:12.638Z,18.97
2019-02-22T16:47:43.418Z,21.23
2019-02-22T16:51:06.216Z,21.53
2019-02-22T16:53:45.319Z,19.70
2019-02-22T16:56:27.093Z,22.97
2019-02-22T16:58:57.603Z,23.27
2019-02-22T17:02:02.659Z,22.07
2019-02-22T17:04:31.822Z,23.40
2019-02-22T17:07:01.072Z,20.47
2019-02-22T17:09:33.155Z,21.00
2019-02-22T17:12:06.409Z,21.67
2019-02-22T17:15:10.791Z,30.90
2019-02-22T17:17:40.162Z,21.80
2019-02-22T17:20:56.253Z,29.83
2019-02-22T17:23:28.751Z,24.97
2019-02-22T17:26:45.268Z,25.37
2019-02-22T17:29:21.041Z,27.17
2019-02-22T17:32:43.205Z,21.60
2019-02-22T17:35:13.798Z,25.57
2019-02-22T17:37:45.657Z,21.17
2019-02-22T17:40:21.213Z,20.20
2019-02-22T17:42:54.420Z,20.70
2019-02-22T17:46:13.084Z,22.10
2019-02-22T17:48:44.773Z,25.70
2019-02-22T17:51:55.418Z,26.03
2019-02-22T17:54:31.761Z,26.40
2019-02-22T17:57:37.134Z,25.20
2019-02-22T18:00:19.669Z,28.07
2019-02-22T18:03:26.206Z,22.93
2019-02-22T18:06:02.746Z,19.83
2019-02-22T18:09:10.973Z,20.30
2019-02-22T18:11:40.451Z,22.23
2019-02-22T18:14:55.224Z,17.10
2019-02-22T18:17:26.222Z,16.00
2019-02-22T18:20:25.914Z,20.67
2019-02-22T18:23:02.250Z,17.60
2019-02-22T18:26:18.545Z,28.53
2019-02-22T18:28:50.723Z,21.93
2019-02-22T18:31:58.994Z,20.63
2019-02-22T18:34:31.214Z,20.57
2019-02-22T18:37:34.348Z,21.47
2019-02-22T18:40:04.826Z,17.57
2019-02-22T18:43:18.287Z,24.83
2019-02-22T18:45:54.841Z,22.27
2019-02-22T18:49:09.718Z,20.50
2019-02-22T18:51:39.308Z,23.50
2019-02-22T18:54:59.224Z,24.23
2019-02-22T18:57:30.365Z,23.10
2019-02-22T19:00:00.604Z,19.73
2019-02-22T19:02:59.437Z,19.20
2019-02-22T19:05:31.669Z,18.10
2019-02-22T19:15:10.611Z,20.13
2019-02-22T19:17:47.165Z,25.63
2019-02-22T19:21:00.299Z,18.77
2019-02-22T19:23:34.745Z,20.33
2019-02-22T19:26:52.137Z,20.00
2019-02-22T19:29:22.627Z,19.23
2019-02-22T19:32:15.666Z,18.67
2019-02-22T19:34:47.665Z,19.47
2019-02-22T19:38:53.412Z,19.00
2019-02-22T19:39:51.186Z,20.60
2019-02-22T19:42:29.861Z,22.30
2019-02-22T19:45:35.939Z,23.03
2019-02-22T19:48:05.240Z,23.43
2019-02-22T19:51:13.405Z,26.70
2019-02-22T19:53:47.859Z,23.80
2019-02-22T19:57:05.670Z,21.10
2019-02-22T19:59:35.077Z,28.10
2019-02-22T20:02:47.259Z,26.47
2019-02-22T20:05:23.908Z,22.97
2019-02-22T20:08:18.393Z,21.37
2019-02-22T20:10:50.298Z,22.57
2019-02-22T20:13:51.570Z,23.63
2019-02-22T20:16:21.525Z,25.00
2019-02-22T20:19:23.507Z,20.43
2019-02-22T20:22:04.750Z,20.93
2019-02-22T20:25:10.759Z,23.33
2019-02-22T20:27:48.160Z,23.33
2019-02-22T20:31:05.603Z,22.90
2019-02-22T20:33:41.460Z,21.03
2019-02-22T20:36:28.670Z,23.87
2019-02-22T20:39:06.215Z,23.50
2019-02-22T20:42:34.833Z,21.70
2019-02-22T20:45:12.115Z,22.33
2019-02-22T20:47:52.575Z,22.37
2019-02-22T20:50:29.520Z,19.80
2019-02-22T20:53:50.223Z,20.93
2019-02-22T20:56:24.018Z,18.57
2019-02-22T20:59:28.204Z,19.63
2019-02-22T21:01:58.086Z,19.63
2019-02-22T21:04:53.621Z,22.23
2019-02-22T21:07:23.001Z,24.43
2019-02-22T21:10:41.456Z,20.70
2019-02-22T21:13:11.258Z,23.07
2019-02-22T21:16:26.046Z,23.60
2019-02-22T21:18:59.661Z,23.47
2019-02-22T21:21:32.462Z,20.57
2019-02-22T21:24:51.693Z,22.27
2019-02-22T21:27:27.371Z,18.90
2019-02-22T21:30:48.063Z,19.67
2019-02-22T21:33:21.452Z,20.40
2019-02-22T21:36:32.553Z,20.00
2019-02-22T21:39:04.446Z,20.37
2019-02-22T21:41:34.096Z,18.20
2019-02-22T21:44:05.466Z,19.27
2019-02-22T21:46:37.657Z,17.53
2019-02-22T21:49:06.754Z,21.00
2019-02-22T21:51:41.985Z,15.80
2019-02-22T21:54:11.704Z,16.60
2019-02-22T21:56:41.043Z,18.63
2019-02-22T21:59:45.079Z,20.60
2019-02-22T22:02:14.055Z,16.53
2019-02-22T22:05:27.750Z,17.93
2019-02-22T22:08:06.812Z,16.60
2019-02-22T22:11:26.655Z,17.53
2019-02-22T22:14:05.495Z,14.50
2019-02-22T22:17:22.477Z,15.43
2019-02-22T22:19:54.556Z,14.80
2019-02-22T22:22:24.068Z,15.70
2019-02-22T22:24:54.730Z,14.37
2019-02-22T22:27:23.817Z,15.77
2019-02-22T22:30:16.519Z,16.50
2019-02-22T22:32:46.042Z,14.00
2019-02-22T22:35:18.011Z,16.03
2019-02-22T22:38:44.965Z,15.80
2019-02-22T22:41:14.181Z,15.13
2019-02-22T22:44:07.276Z,13.97
2019-02-22T22:46:37.193Z,13.60
2019-02-22T22:49:59.260Z,16.40
2019-02-22T22:52:28.619Z,14.77
2019-02-22T22:55:33.759Z,14.63
2019-02-22T22:58:02.819Z,18.10
2019-02-22T23:01:12.211Z,13.67
2019-02-22T23:03:46.442Z,12.57
2019-02-22T23:06:49.297Z,17.57
2019-02-22T23:09:23.199Z,14.60
2019-02-22T23:12:45.454Z,15.30
2019-02-22T23:15:29.101Z,13.60
2019-02-22T23:17:59.372Z,12.70
2019-02-22T23:21:00.991Z,12.90
2019-02-22T23:23:34.940Z,13.77
2019-02-22T23:26:06.812Z,12.80
2019-02-22T23:29:20.512Z,14.10
2019-02-22T23:31:55.958Z,13.10
2019-02-22T23:37:08.091Z,14.43
2019-02-22T23:39:39.331Z,13.27
2019-02-22T23:49:21.148Z,21.80
2019-02-22T23:51:53.550Z,15.63
2019-02-22T23:55:09.152Z,13.67
2019-02-22T23:57:39.810Z,16.00
